KLM1628 LIPZ-EHAM
Flight info
| Callsign | KLM1628 |
|---|---|
| Flight time | N/A |
| Altitude | 34000 |
| Route | ROKIB DCT GIKEB DCT EKPEB DCT BRENO DCT KONIN DCT MAH DCT ASPAT DCT MASEK DCT MAPOX DCT NORKU |
| Aircraft | A21N/M-SDE2E3FGHIRWXY/LB1 |
Departure
| Time | 2026-05-06 16:37 |
|---|---|
| Airport | Venice Marco Polo Airport (LIPZ) |
Arrival
| Time | N/A |
|---|---|
| Airport | Amsterdam Airport Schiphol (EHAM) |
| Time | Latitude | Longitude | Altitude | Speed | Heading |
|---|---|---|---|---|---|
| 2026-05-06 16:01 | 45.50551 | 12.34220 | 21 ft | 0 kts | 269° |
| 2026-05-06 16:21 | 45.50552 | 12.34249 | 21 ft | 4 kts | 265° |
| 2026-05-06 16:22 | 45.50556 | 12.34287 | 22 ft | 4 kts | 256° |
| 2026-05-06 16:22 | 45.50565 | 12.34321 | 24 ft | 4 kts | 230° |
| 2026-05-06 16:22 | 45.50582 | 12.34336 | 24 ft | 1 kts | 178° |
| 2026-05-06 16:22 | 45.50583 | 12.34336 | 23 ft | 0 kts | 177° |
| 2026-05-06 16:26 | 45.50581 | 12.34337 | 21 ft | 1 kts | 177° |
| 2026-05-06 16:26 | 45.50559 | 12.34339 | 21 ft | 5 kts | 178° |
| 2026-05-06 16:26 | 45.50509 | 12.34341 | 21 ft | 9 kts | 179° |
| 2026-05-06 16:27 | 45.50432 | 12.34346 | 21 ft | 13 kts | 178° |
| 2026-05-06 16:27 | 45.50327 | 12.34354 | 21 ft | 17 kts | 178° |
| 2026-05-06 16:27 | 45.50203 | 12.34363 | 21 ft | 19 kts | 180° |
| 2026-05-06 16:27 | 45.50087 | 12.34291 | 21 ft | 19 kts | 226° |
| 2026-05-06 16:28 | 45.49986 | 12.34157 | 19 ft | 20 kts | 222° |
| 2026-05-06 16:28 | 45.49914 | 12.34069 | 19 ft | 21 kts | 221° |
| 2026-05-06 16:28 | 45.49802 | 12.33927 | 19 ft | 22 kts | 223° |
| 2026-05-06 16:28 | 45.49685 | 12.33772 | 22 ft | 23 kts | 223° |
| 2026-05-06 16:29 | 45.49577 | 12.33635 | 22 ft | 17 kts | 223° |
| 2026-05-06 16:29 | 45.49507 | 12.33603 | 24 ft | 5 kts | 142° |
| 2026-05-06 16:29 | 45.49505 | 12.33606 | 24 ft | 0 kts | 131° |
| 2026-05-06 16:35 | 45.49492 | 12.33628 | 22 ft | 12 kts | 131° |
| 2026-05-06 16:35 | 45.49425 | 12.33735 | 21 ft | 13 kts | 128° |
| 2026-05-06 16:36 | 45.49441 | 12.33811 | 20 ft | 0 kts | 39° |
| 2026-05-06 16:36 | 45.49491 | 12.33873 | 20 ft | 11 kts | 39° |
| 2026-05-06 16:37 | 45.49728 | 12.34159 | 18 ft | 57 kts | 40° |
| 2026-05-06 16:37 | 45.50173 | 12.34753 | 20 ft | 119 kts | 43° |
| 2026-05-06 16:37 | 45.50950 | 12.35753 | 23 ft | 180 kts | 43° |
| 2026-05-06 16:37 | 45.51922 | 12.37007 | 688 ft | 191 kts | 43° |
| 2026-05-06 16:38 | 45.52871 | 12.38380 | 1511 ft | 198 kts | 52° |
| 2026-05-06 16:38 | 45.53611 | 12.40054 | 2097 ft | 203 kts | 75° |
| 2026-05-06 16:38 | 45.53638 | 12.42031 | 2649 ft | 207 kts | 104° |
| 2026-05-06 16:38 | 45.53360 | 12.44086 | 3323 ft | 214 kts | 104° |
| 2026-05-06 16:39 | 45.53104 | 12.46215 | 3978 ft | 225 kts | 102° |
| 2026-05-06 16:39 | 45.52848 | 12.48512 | 4464 ft | 243 kts | 101° |
| 2026-05-06 16:39 | 45.52533 | 12.50919 | 5122 ft | 250 kts | 112° |
| 2026-05-06 16:39 | 45.51643 | 12.53019 | 5814 ft | 248 kts | 140° |
| 2026-05-06 16:40 | 45.50176 | 12.54296 | 6531 ft | 246 kts | 166° |
| 2026-05-06 16:40 | 45.48459 | 12.54483 | 6953 ft | 255 kts | 193° |
| 2026-05-06 16:40 | 45.46841 | 12.53512 | 7509 ft | 259 kts | 218° |
| 2026-05-06 16:40 | 45.45664 | 12.51537 | 8272 ft | 262 kts | 243° |
| 2026-05-06 16:41 | 45.45256 | 12.49020 | 9068 ft | 269 kts | 268° |
| 2026-05-06 16:41 | 45.45664 | 12.46367 | 9881 ft | 277 kts | 285° |
| 2026-05-06 16:41 | 45.46378 | 12.43735 | 10320 ft | 294 kts | 287° |
| 2026-05-06 16:41 | 45.47142 | 12.40928 | 10615 ft | 314 kts | 286° |
| 2026-05-06 16:42 | 45.47932 | 12.37921 | 10878 ft | 333 kts | 286° |
| 2026-05-06 16:42 | 45.48745 | 12.34727 | 11129 ft | 351 kts | 285° |
| 2026-05-06 16:42 | 45.49578 | 12.31410 | 11626 ft | 359 kts | 285° |
| 2026-05-06 16:42 | 45.50418 | 12.28039 | 12264 ft | 363 kts | 285° |
| 2026-05-06 16:43 | 45.51262 | 12.24632 | 12920 ft | 366 kts | 285° |
| 2026-05-06 16:43 | 45.52111 | 12.21187 | 13556 ft | 370 kts | 284° |
| 2026-05-06 16:43 | 45.52904 | 12.17695 | 14129 ft | 372 kts | 283° |
| 2026-05-06 16:43 | 45.53668 | 12.14210 | 14698 ft | 375 kts | 283° |
| 2026-05-06 16:44 | 45.54446 | 12.10640 | 15250 ft | 377 kts | 283° |
| 2026-05-06 16:44 | 45.55226 | 12.07056 | 15794 ft | 379 kts | 283° |
| 2026-05-06 16:44 | 45.56007 | 12.03453 | 16313 ft | 381 kts | 283° |
| 2026-05-06 16:44 | 45.56811 | 11.99848 | 16837 ft | 385 kts | 285° |
| 2026-05-06 16:45 | 45.57975 | 11.96361 | 17320 ft | 394 kts | 297° |
| 2026-05-06 16:45 | 45.59719 | 11.93302 | 17810 ft | 405 kts | 311° |
| 2026-05-06 16:45 | 45.62012 | 11.90882 | 18276 ft | 416 kts | 326° |
| 2026-05-06 16:45 | 45.64625 | 11.89040 | 18702 ft | 421 kts | 330° |
| 2026-05-06 16:46 | 45.67292 | 11.87271 | 19102 ft | 424 kts | 330° |
| 2026-05-06 16:46 | 45.69972 | 11.85483 | 19490 ft | 426 kts | 329° |
| 2026-05-06 16:46 | 45.72655 | 11.83665 | 19873 ft | 428 kts | 329° |
| 2026-05-06 16:46 | 45.75359 | 11.81813 | 20242 ft | 433 kts | 328° |
| 2026-05-06 16:47 | 45.78083 | 11.79931 | 20597 ft | 436 kts | 328° |
| 2026-05-06 16:47 | 45.80820 | 11.78031 | 20958 ft | 439 kts | 328° |
| 2026-05-06 16:47 | 45.83574 | 11.76120 | 21340 ft | 442 kts | 328° |
| 2026-05-06 16:47 | 45.86352 | 11.74195 | 21707 ft | 445 kts | 328° |
| 2026-05-06 16:48 | 45.89150 | 11.72258 | 22089 ft | 448 kts | 328° |
| 2026-05-06 16:48 | 45.91960 | 11.70336 | 22486 ft | 450 kts | 329° |
| 2026-05-06 16:48 | 45.94944 | 11.68821 | 22815 ft | 460 kts | 340° |
| 2026-05-06 16:48 | 45.98089 | 11.67837 | 23121 ft | 465 kts | 343° |
| 2026-05-06 16:49 | 46.01277 | 11.66935 | 23466 ft | 470 kts | 343° |
| 2026-05-06 16:49 | 46.04497 | 11.66029 | 23743 ft | 472 kts | 343° |
| 2026-05-06 16:49 | 46.07724 | 11.65117 | 24072 ft | 473 kts | 343° |
| 2026-05-06 16:49 | 46.10961 | 11.64190 | 24378 ft | 476 kts | 343° |
| 2026-05-06 16:50 | 46.14224 | 11.63246 | 24681 ft | 479 kts | 343° |
| 2026-05-06 16:50 | 46.17494 | 11.62296 | 24973 ft | 481 kts | 342° |
| 2026-05-06 16:50 | 46.20791 | 11.61332 | 25242 ft | 484 kts | 342° |
| 2026-05-06 16:50 | 46.24089 | 11.60371 | 25516 ft | 485 kts | 342° |
| 2026-05-06 16:51 | 46.27402 | 11.59411 | 25793 ft | 485 kts | 342° |
| 2026-05-06 16:51 | 46.30716 | 11.58448 | 25985 ft | 487 kts | 342° |
| 2026-05-06 16:51 | 46.34049 | 11.57476 | 26218 ft | 489 kts | 342° |
| 2026-05-06 16:51 | 46.37386 | 11.56492 | 26454 ft | 491 kts | 342° |
| 2026-05-06 16:52 | 46.40738 | 11.55514 | 26726 ft | 492 kts | 342° |
| 2026-05-06 16:52 | 46.44100 | 11.54533 | 26947 ft | 493 kts | 342° |
| 2026-05-06 16:52 | 46.47468 | 11.53537 | 27133 ft | 495 kts | 342° |
| 2026-05-06 16:52 | 46.50841 | 11.52544 | 27434 ft | 495 kts | 341° |
| 2026-05-06 16:53 | 46.54221 | 11.51549 | 27691 ft | 496 kts | 341° |
| 2026-05-06 16:53 | 46.57603 | 11.50562 | 27978 ft | 495 kts | 341° |
| 2026-05-06 16:53 | 46.60971 | 11.49571 | 28285 ft | 494 kts | 341° |
| 2026-05-06 16:53 | 46.64342 | 11.48577 | 28578 ft | 493 kts | 341° |
| 2026-05-06 16:54 | 46.67700 | 11.47583 | 28814 ft | 494 kts | 341° |
| 2026-05-06 16:54 | 46.71057 | 11.46524 | 29076 ft | 493 kts | 339° |
| 2026-05-06 16:54 | 46.74355 | 11.45433 | 29375 ft | 492 kts | 339° |
| 2026-05-06 16:54 | 46.77694 | 11.44323 | 29722 ft | 492 kts | 339° |
| 2026-05-06 16:55 | 46.81035 | 11.43217 | 29984 ft | 492 kts | 339° |
| 2026-05-06 16:55 | 46.84373 | 11.42114 | 30223 ft | 493 kts | 340° |
| 2026-05-06 16:55 | 46.87720 | 11.41017 | 30518 ft | 492 kts | 340° |
| 2026-05-06 16:55 | 46.91053 | 11.39921 | 30788 ft | 490 kts | 340° |
| 2026-05-06 16:56 | 46.94377 | 11.38818 | 31050 ft | 489 kts | 340° |
| 2026-05-06 16:56 | 46.97705 | 11.37810 | 31345 ft | 493 kts | 345° |
| 2026-05-06 16:56 | 47.01162 | 11.37521 | 31564 ft | 500 kts | 353° |
| 2026-05-06 16:56 | 47.04635 | 11.37505 | 31788 ft | 500 kts | 354° |
| 2026-05-06 16:57 | 47.08111 | 11.37498 | 32023 ft | 498 kts | 353° |
| 2026-05-06 16:57 | 47.11562 | 11.37480 | 32239 ft | 496 kts | 353° |
| 2026-05-06 16:57 | 47.15016 | 11.37451 | 32426 ft | 495 kts | 353° |
| 2026-05-06 16:57 | 47.18461 | 11.37415 | 32634 ft | 495 kts | 353° |
| 2026-05-06 16:58 | 47.21900 | 11.37373 | 32740 ft | 495 kts | 353° |
| 2026-05-06 16:58 | 47.25346 | 11.37340 | 32904 ft | 495 kts | 353° |
| 2026-05-06 16:58 | 47.28793 | 11.37318 | 33141 ft | 494 kts | 353° |
| 2026-05-06 16:58 | 47.32184 | 11.37309 | 33396 ft | 493 kts | 353° |
| 2026-05-06 16:59 | 47.35653 | 11.37290 | 33675 ft | 492 kts | 353° |
| 2026-05-06 16:59 | 47.39075 | 11.37255 | 33790 ft | 491 kts | 353° |
| 2026-05-06 16:59 | 47.42443 | 11.37217 | 33791 ft | 490 kts | 353° |
| 2026-05-06 17:00 | 47.49250 | 11.37149 | 33785 ft | 489 kts | 353° |
| 2026-05-06 17:00 | 47.56067 | 11.37086 | 33793 ft | 490 kts | 353° |
| 2026-05-06 17:01 | 47.62883 | 11.37009 | 33838 ft | 490 kts | 354° |
| 2026-05-06 17:01 | 47.69691 | 11.36940 | 33828 ft | 488 kts | 354° |
| 2026-05-06 17:02 | 47.76485 | 11.36881 | 33830 ft | 488 kts | 354° |
| 2026-05-06 17:02 | 47.83267 | 11.36824 | 33837 ft | 488 kts | 354° |
| 2026-05-06 17:03 | 47.90001 | 11.36197 | 33831 ft | 483 kts | 349° |
| 2026-05-06 17:03 | 47.96693 | 11.35240 | 33829 ft | 483 kts | 349° |
| 2026-05-06 17:04 | 48.03386 | 11.34322 | 33817 ft | 483 kts | 349° |
| 2026-05-06 17:04 | 48.10080 | 11.33399 | 33844 ft | 484 kts | 349° |
| 2026-05-06 17:05 | 48.16804 | 11.32462 | 33826 ft | 485 kts | 349° |
| 2026-05-06 17:05 | 48.23529 | 11.31521 | 33823 ft | 485 kts | 348° |
| 2026-05-06 17:06 | 48.29927 | 11.29046 | 33820 ft | 470 kts | 331° |
| 2026-05-06 17:06 | 48.35954 | 11.25294 | 33813 ft | 469 kts | 330° |
| 2026-05-06 17:07 | 48.41995 | 11.21514 | 33794 ft | 471 kts | 330° |
| 2026-05-06 17:07 | 48.48054 | 11.17751 | 33795 ft | 471 kts | 330° |
| 2026-05-06 17:08 | 48.54112 | 11.13983 | 33785 ft | 471 kts | 330° |
| 2026-05-06 17:08 | 48.60182 | 11.10195 | 33779 ft | 472 kts | 331° |
| 2026-05-06 17:09 | 48.66251 | 11.06389 | 33769 ft | 472 kts | 331° |
| 2026-05-06 17:09 | 48.72323 | 11.02584 | 33770 ft | 472 kts | 331° |
| 2026-05-06 17:10 | 48.78396 | 10.98775 | 33809 ft | 473 kts | 330° |
| 2026-05-06 17:10 | 48.84497 | 10.94926 | 33780 ft | 476 kts | 331° |
| 2026-05-06 17:11 | 48.90621 | 10.91044 | 33783 ft | 477 kts | 331° |
| 2026-05-06 17:11 | 48.96751 | 10.87169 | 33790 ft | 477 kts | 331° |
| 2026-05-06 17:12 | 49.02866 | 10.83280 | 33802 ft | 476 kts | 330° |
| 2026-05-06 17:12 | 49.08930 | 10.79413 | 33804 ft | 475 kts | 331° |
| 2026-05-06 17:13 | 49.15029 | 10.75512 | 33809 ft | 475 kts | 331° |
| 2026-05-06 17:13 | 49.21092 | 10.71520 | 33806 ft | 473 kts | 328° |
| 2026-05-06 17:14 | 49.27053 | 10.67274 | 33818 ft | 471 kts | 329° |
| 2026-05-06 17:14 | 49.32986 | 10.63037 | 33795 ft | 470 kts | 329° |
| 2026-05-06 17:15 | 49.38914 | 10.58792 | 33791 ft | 470 kts | 329° |
| 2026-05-06 17:15 | 49.43883 | 10.55236 | 33765 ft | 470 kts | 329° |
| 2026-05-06 17:16 | 49.49771 | 10.50998 | 33776 ft | 470 kts | 328° |
| 2026-05-06 17:16 | 49.55682 | 10.46750 | 33764 ft | 469 kts | 328° |
| 2026-05-06 17:17 | 49.61615 | 10.42475 | 33763 ft | 469 kts | 328° |
| 2026-05-06 17:17 | 49.67508 | 10.38202 | 33781 ft | 472 kts | 329° |
| 2026-05-06 17:18 | 49.73461 | 10.33873 | 33779 ft | 473 kts | 329° |
| 2026-05-06 17:18 | 49.79419 | 10.29533 | 33775 ft | 473 kts | 329° |
| 2026-05-06 17:19 | 49.85366 | 10.25184 | 33772 ft | 473 kts | 329° |
| 2026-05-06 17:19 | 49.91322 | 10.20831 | 33769 ft | 473 kts | 329° |
| 2026-05-06 17:20 | 49.97280 | 10.16458 | 33766 ft | 473 kts | 328° |
| 2026-05-06 17:20 | 50.03184 | 10.12100 | 33762 ft | 468 kts | 328° |
| 2026-05-06 17:21 | 50.09074 | 10.07753 | 33778 ft | 469 kts | 329° |
| 2026-05-06 17:21 | 50.14973 | 10.03388 | 33775 ft | 469 kts | 329° |
| 2026-05-06 17:22 | 50.20869 | 9.99017 | 33767 ft | 469 kts | 329° |
| 2026-05-06 17:22 | 50.26744 | 9.94641 | 33762 ft | 467 kts | 330° |
| 2026-05-06 17:23 | 50.32607 | 9.90258 | 33763 ft | 467 kts | 329° |
| 2026-05-06 17:23 | 50.38468 | 9.85871 | 33763 ft | 467 kts | 329° |
| 2026-05-06 17:24 | 50.44327 | 9.81478 | 33773 ft | 467 kts | 329° |
| 2026-05-06 17:24 | 50.50175 | 9.77076 | 33790 ft | 464 kts | 330° |
| 2026-05-06 17:25 | 50.55971 | 9.72703 | 33766 ft | 461 kts | 330° |
| 2026-05-06 17:25 | 50.61747 | 9.68319 | 33772 ft | 461 kts | 330° |
| 2026-05-06 17:26 | 50.67522 | 9.63925 | 33776 ft | 461 kts | 330° |
| 2026-05-06 17:26 | 50.73048 | 9.58960 | 33769 ft | 453 kts | 316° |
| 2026-05-06 17:27 | 50.77237 | 9.51687 | 33784 ft | 446 kts | 304° |
| 2026-05-06 17:27 | 50.81135 | 9.44061 | 33783 ft | 446 kts | 304° |
| 2026-05-06 17:28 | 50.85038 | 9.36509 | 33792 ft | 446 kts | 305° |
| 2026-05-06 17:28 | 50.88983 | 9.28921 | 33787 ft | 446 kts | 306° |
| 2026-05-06 17:29 | 50.92908 | 9.21319 | 33786 ft | 446 kts | 305° |
| 2026-05-06 17:29 | 50.96831 | 9.13697 | 33785 ft | 446 kts | 305° |
| 2026-05-06 17:30 | 51.00746 | 9.06089 | 33790 ft | 444 kts | 306° |
| 2026-05-06 17:30 | 51.04634 | 8.98466 | 33787 ft | 444 kts | 305° |
| 2026-05-06 17:31 | 51.08522 | 8.90841 | 33791 ft | 444 kts | 305° |
| 2026-05-06 17:31 | 51.12413 | 8.83210 | 33793 ft | 444 kts | 306° |
| 2026-05-06 17:32 | 51.16632 | 8.75964 | 33798 ft | 447 kts | 310° |
| 2026-05-06 17:32 | 51.20959 | 8.68854 | 33808 ft | 447 kts | 310° |
| 2026-05-06 17:33 | 51.25276 | 8.61731 | 33809 ft | 447 kts | 310° |
| 2026-05-06 17:33 | 51.29595 | 8.54597 | 33821 ft | 446 kts | 311° |
| 2026-05-06 17:34 | 51.33928 | 8.47480 | 33825 ft | 447 kts | 311° |
| 2026-05-06 17:34 | 51.38243 | 8.40329 | 33826 ft | 447 kts | 311° |
| 2026-05-06 17:35 | 51.42550 | 8.33132 | 33826 ft | 447 kts | 310° |
| 2026-05-06 17:35 | 51.46856 | 8.25937 | 33833 ft | 447 kts | 310° |
| 2026-05-06 17:36 | 51.53291 | 8.15101 | 33857 ft | 447 kts | 311° |
| 2026-05-06 17:36 | 51.57589 | 8.07856 | 33854 ft | 448 kts | 311° |
| 2026-05-06 17:37 | 51.61888 | 8.00608 | 33854 ft | 448 kts | 311° |
| 2026-05-06 17:37 | 51.66151 | 7.93384 | 33853 ft | 448 kts | 310° |
| 2026-05-06 17:38 | 51.70443 | 7.86103 | 33854 ft | 448 kts | 311° |
| 2026-05-06 17:38 | 51.74739 | 7.78823 | 33851 ft | 448 kts | 310° |
| 2026-05-06 17:39 | 51.79012 | 7.71525 | 33861 ft | 447 kts | 311° |
| 2026-05-06 17:39 | 51.83276 | 7.64211 | 33858 ft | 447 kts | 311° |
| 2026-05-06 17:40 | 51.87538 | 7.56888 | 33870 ft | 447 kts | 310° |
| 2026-05-06 17:40 | 51.91791 | 7.49559 | 33868 ft | 447 kts | 310° |
| 2026-05-06 17:41 | 51.96037 | 7.42217 | 33872 ft | 446 kts | 310° |
| 2026-05-06 17:41 | 52.00280 | 7.34858 | 33880 ft | 446 kts | 310° |
| 2026-05-06 17:42 | 52.04514 | 7.27496 | 33875 ft | 447 kts | 310° |
| 2026-05-06 17:42 | 52.08728 | 7.20134 | 32820 ft | 446 kts | 310° |
| 2026-05-06 17:43 | 52.10873 | 7.16385 | 31486 ft | 458 kts | 311° |
| 2026-05-06 17:43 | 52.13056 | 7.12571 | 30473 ft | 463 kts | 311° |
| 2026-05-06 17:43 | 52.15245 | 7.08740 | 29679 ft | 460 kts | 311° |
| 2026-05-06 17:43 | 52.17415 | 7.04929 | 28904 ft | 457 kts | 311° |
| 2026-05-06 17:44 | 52.19572 | 7.01139 | 28251 ft | 454 kts | 311° |
| 2026-05-06 17:44 | 52.21676 | 6.97361 | 27820 ft | 447 kts | 309° |
| 2026-05-06 17:44 | 52.23648 | 6.93474 | 27166 ft | 442 kts | 308° |
| 2026-05-06 17:44 | 52.25582 | 6.89604 | 26465 ft | 438 kts | 307° |
| 2026-05-06 17:45 | 52.27494 | 6.85776 | 25788 ft | 433 kts | 307° |
| 2026-05-06 17:45 | 52.29386 | 6.81990 | 25160 ft | 428 kts | 307° |
| 2026-05-06 17:45 | 52.31251 | 6.78245 | 24556 ft | 422 kts | 307° |
| 2026-05-06 17:45 | 52.33094 | 6.74537 | 23953 ft | 417 kts | 307° |
| 2026-05-06 17:46 | 52.34913 | 6.70886 | 23352 ft | 413 kts | 307° |
| 2026-05-06 17:46 | 52.36717 | 6.67255 | 22671 ft | 409 kts | 307° |
| 2026-05-06 17:46 | 52.38502 | 6.63651 | 22043 ft | 407 kts | 307° |
| 2026-05-06 17:46 | 52.40281 | 6.60056 | 21422 ft | 405 kts | 307° |
| 2026-05-06 17:47 | 52.42022 | 6.56536 | 20840 ft | 403 kts | 307° |
| 2026-05-06 17:47 | 52.43778 | 6.52983 | 20264 ft | 400 kts | 307° |
| 2026-05-06 17:47 | 52.45472 | 6.49390 | 19703 ft | 396 kts | 302° |
| 2026-05-06 17:47 | 52.46683 | 6.45399 | 19168 ft | 390 kts | 288° |
| 2026-05-06 17:48 | 52.47211 | 6.41072 | 18672 ft | 386 kts | 276° |
| 2026-05-06 17:48 | 52.47428 | 6.36699 | 18169 ft | 383 kts | 275° |
| 2026-05-06 17:48 | 52.47612 | 6.32358 | 17616 ft | 380 kts | 275° |
| 2026-05-06 17:48 | 52.47804 | 6.28049 | 17097 ft | 376 kts | 275° |
| 2026-05-06 17:49 | 52.48005 | 6.23794 | 16575 ft | 373 kts | 275° |
| 2026-05-06 17:49 | 52.48212 | 6.19567 | 16059 ft | 370 kts | 275° |
| 2026-05-06 17:49 | 52.48416 | 6.15387 | 15577 ft | 366 kts | 275° |
| 2026-05-06 17:49 | 52.48615 | 6.11252 | 15125 ft | 362 kts | 275° |
| 2026-05-06 17:50 | 52.48806 | 6.07161 | 14673 ft | 358 kts | 275° |
| 2026-05-06 17:50 | 52.48995 | 6.03105 | 14203 ft | 355 kts | 275° |
| 2026-05-06 17:50 | 52.49184 | 5.99086 | 13752 ft | 352 kts | 275° |
| 2026-05-06 17:50 | 52.49371 | 5.95098 | 13263 ft | 349 kts | 275° |
| 2026-05-06 17:51 | 52.49557 | 5.91147 | 12792 ft | 346 kts | 275° |
| 2026-05-06 17:51 | 52.49744 | 5.87232 | 12332 ft | 343 kts | 276° |
| 2026-05-06 17:51 | 52.49926 | 5.83353 | 11885 ft | 340 kts | 275° |
| 2026-05-06 17:51 | 52.50102 | 5.79503 | 11446 ft | 337 kts | 275° |
| 2026-05-06 17:52 | 52.50272 | 5.75719 | 11089 ft | 327 kts | 275° |
| 2026-05-06 17:52 | 52.50434 | 5.72071 | 10862 ft | 314 kts | 276° |
| 2026-05-06 17:52 | 52.50589 | 5.68579 | 10684 ft | 299 kts | 275° |
| 2026-05-06 17:52 | 52.50737 | 5.65249 | 10516 ft | 286 kts | 275° |
| 2026-05-06 17:53 | 52.50878 | 5.62038 | 10314 ft | 278 kts | 276° |
| 2026-05-06 17:53 | 52.50997 | 5.58913 | 10109 ft | 271 kts | 272° |
| 2026-05-06 17:53 | 52.50714 | 5.55896 | 9865 ft | 268 kts | 250° |
| 2026-05-06 17:53 | 52.49856 | 5.53196 | 9699 ft | 268 kts | 241° |
| 2026-05-06 17:54 | 52.48868 | 5.50600 | 9537 ft | 268 kts | 239° |
| 2026-05-06 17:54 | 52.47881 | 5.48012 | 9407 ft | 268 kts | 240° |
| 2026-05-06 17:54 | 52.46901 | 5.45409 | 9284 ft | 268 kts | 240° |
| 2026-05-06 17:54 | 52.45926 | 5.42783 | 9137 ft | 279 kts | 240° |
| 2026-05-06 17:55 | 52.44911 | 5.40033 | 9039 ft | 277 kts | 240° |
| 2026-05-06 17:55 | 52.43929 | 5.37384 | 8909 ft | 268 kts | 240° |
| 2026-05-06 17:55 | 52.42967 | 5.34783 | 8778 ft | 275 kts | 240° |
| 2026-05-06 17:55 | 52.41972 | 5.32097 | 8663 ft | 277 kts | 240° |
| 2026-05-06 17:56 | 52.40986 | 5.29436 | 8510 ft | 277 kts | 240° |
| 2026-05-06 17:56 | 52.39987 | 5.26743 | 8204 ft | 276 kts | 240° |
| 2026-05-06 17:56 | 52.38981 | 5.24028 | 7547 ft | 282 kts | 239° |
| 2026-05-06 17:56 | 52.37955 | 5.21262 | 6822 ft | 286 kts | 239° |
| 2026-05-06 17:57 | 52.36899 | 5.18425 | 6071 ft | 290 kts | 239° |
| 2026-05-06 17:57 | 52.35860 | 5.15641 | 5311 ft | 292 kts | 238° |
| 2026-05-06 17:57 | 52.34764 | 5.12818 | 4735 ft | 295 kts | 238° |
| 2026-05-06 17:57 | 52.33659 | 5.10045 | 4475 ft | 285 kts | 237° |
| 2026-05-06 17:58 | 52.32602 | 5.07405 | 4387 ft | 271 kts | 237° |
| 2026-05-06 17:58 | 52.31587 | 5.04872 | 4378 ft | 264 kts | 237° |
| 2026-05-06 17:58 | 52.30576 | 5.02351 | 4387 ft | 267 kts | 237° |
| 2026-05-06 17:58 | 52.29558 | 4.99818 | 4399 ft | 267 kts | 237° |
| 2026-05-06 17:59 | 52.28549 | 4.97310 | 4205 ft | 265 kts | 237° |
| 2026-05-06 17:59 | 52.27529 | 4.94782 | 3838 ft | 265 kts | 237° |
| 2026-05-06 17:59 | 52.27188 | 4.93935 | 3736 ft | 264 kts | 237° |